Time;durP1;ratioP1;P1;durP2;ratioP2;P2;SDS_P1;SDS_P2;PMS_P1;PMS_P2;Temp;Humidity;BMP_temperature;BMP_pressure;BME280_temperature;BME280_humidity;BME280_pressure;Samples;Min_cycle;Max_cycle;Signal;HPM_P1;HPM_P2
2023/09/17 00:01:13;;;;;;;8.65;6.85;;;;;;;;;;4997509;28;20038;-72
2023/09/17 00:03:40;;;;;;;9.75;7.07;;;;;;;;;;4997561;28;20067;-71
2023/09/17 00:06:06;;;;;;;10.23;6.88;;;;;;;;;;4996067;28;20203;-72
2023/09/17 00:08:32;;;;;;;8.50;7.03;;;;;;;;;;4996123;28;20054;-72
2023/09/17 00:10:57;;;;;;;6.57;5.75;;;;;;;;;;4997016;28;20053;-71
2023/09/17 00:13:23;;;;;;;10.02;6.60;;;;;;;;;;4997947;28;20048;-72
2023/09/17 00:15:49;;;;;;;9.50;6.47;;;;;;;;;;4996839;28;20054;-72
2023/09/17 00:18:15;;;;;;;7.80;5.78;;;;;;;;;;4996305;28;20148;-72
2023/09/17 00:20:41;;;;;;;9.02;5.75;;;;;;;;;;4997065;28;20053;-72
2023/09/17 00:23:06;;;;;;;7.75;5.97;;;;;;;;;;4997167;28;20046;-71
2023/09/17 00:25:32;;;;;;;7.50;5.60;;;;;;;;;;4997672;28;20038;-72
2023/09/17 00:27:58;;;;;;;8.48;5.68;;;;;;;;;;4995383;28;20132;-71
2023/09/17 00:30:24;;;;;;;7.25;5.55;;;;;;;;;;4996287;28;20054;-72
2023/09/17 00:32:50;;;;;;;7.80;6.35;;;;;;;;;;4994984;28;20042;-72
2023/09/17 00:35:15;;;;;;;7.20;5.70;;;;;;;;;;4997432;28;20414;-72
2023/09/17 00:37:42;;;;;;;8.32;6.13;;;;;;;;;;5000607;28;20072;-71
2023/09/17 00:40:11;;;;;;;8.45;6.55;;;;;;;;;;5000060;28;20048;-72
2023/09/17 00:42:45;;;;;;;9.18;6.93;;;;;;;;;;4983156;28;20057;-72
2023/09/17 00:45:12;;;;;;;8.07;6.43;;;;;;;;;;4999381;28;20037;-71
2023/09/17 00:47:38;;;;;;;7.57;6.15;;;;;;;;;;5000766;28;20107;-72
2023/09/17 00:50:05;;;;;;;7.35;5.90;;;;;;;;;;5014560;28;20048;-72
2023/09/17 00:52:33;;;;;;;8.93;6.15;;;;;;;;;;5000833;28;20038;-72
2023/09/17 00:54:58;;;;;;;8.93;6.30;;;;;;;;;;5015257;28;20536;-71
2023/09/17 00:57:24;;;;;;;10.38;5.90;;;;;;;;;;5015913;28;20057;-72
2023/09/17 00:59:50;;;;;;;7.88;6.38;;;;;;;;;;4998584;28;20074;-71
2023/09/17 01:02:18;;;;;;;7.88;6.55;;;;;;;;;;4998794;28;20053;-71
2023/09/17 01:04:49;;;;;;;11.55;7.40;;;;;;;;;;4998914;28;20052;-72
2023/09/17 01:07:19;;;;;;;9.25;6.40;;;;;;;;;;5015635;28;20041;-72
2023/09/17 01:09:45;;;;;;;10.00;6.97;;;;;;;;;;4998698;28;20048;-72
2023/09/17 01:12:11;;;;;;;10.68;7.70;;;;;;;;;;5014008;28;20798;-71
2023/09/17 01:14:37;;;;;;;10.57;7.13;;;;;;;;;;4997873;28;20483;-71
2023/09/17 01:17:10;;;;;;;10.57;6.72;;;;;;;;;;5013469;28;20060;-71
2023/09/17 01:19:36;;;;;;;9.23;6.22;;;;;;;;;;5014735;28;20050;-72
2023/09/17 01:22:20;;;;;;;13.65;6.90;;;;;;;;;;4996002;28;21822;-72
2023/09/17 01:25:05;;;;;;;9.57;6.60;;;;;;;;;;5014337;28;20046;-69
2023/09/17 01:27:33;;;;;;;8.27;5.43;;;;;;;;;;4998561;28;20057;-72
2023/09/17 01:29:59;;;;;;;7.65;5.97;;;;;;;;;;4981100;28;20621;-71
2023/09/17 01:32:24;;;;;;;8.75;6.43;;;;;;;;;;5015223;28;20129;-72
2023/09/17 01:34:52;;;;;;;7.90;6.20;;;;;;;;;;4997732;28;20152;-72
2023/09/17 01:37:27;;;;;;;8.20;6.50;;;;;;;;;;4998196;28;20061;-71
2023/09/17 01:40:03;;;;;;;8.80;6.38;;;;;;;;;;4981370;28;20132;-77
2023/09/17 01:42:29;;;;;;;7.70;6.50;;;;;;;;;;4998658;28;20148;-72
2023/09/17 01:44:57;;;;;;;6.97;5.95;;;;;;;;;;4981847;28;20056;-72
2023/09/17 01:47:23;;;;;;;8.05;6.50;;;;;;;;;;4980735;28;20041;-72
2023/09/17 01:49:50;;;;;;;8.15;6.60;;;;;;;;;;4997906;28;20049;-72
2023/09/17 01:52:20;;;;;;;9.10;6.88;;;;;;;;;;5014466;28;20049;-72
2023/09/17 01:54:46;;;;;;;8.50;7.05;;;;;;;;;;4999339;28;20104;-72
2023/09/17 01:57:11;;;;;;;16.67;7.47;;;;;;;;;;5013628;28;20045;-72
2023/09/17 01:59:37;;;;;;;9.77;7.00;;;;;;;;;;4982246;28;20042;-71
2023/09/17 02:02:03;;;;;;;9.05;7.50;;;;;;;;;;4996547;28;20042;-72
2023/09/17 02:04:28;;;;;;;8.48;7.35;;;;;;;;;;4998453;28;20046;-72
2023/09/17 02:06:54;;;;;;;7.97;6.47;;;;;;;;;;4997202;28;20054;-71
2023/09/17 02:09:21;;;;;;;7.47;6.68;;;;;;;;;;4997522;28;20041;-72
2023/09/17 02:11:48;;;;;;;10.65;6.78;;;;;;;;;;5014191;28;20054;-72
2023/09/17 02:14:15;;;;;;;7.78;6.82;;;;;;;;;;5013578;28;20123;-72
2023/09/17 02:16:41;;;;;;;10.77;6.70;;;;;;;;;;4999219;28;20088;-72
2023/09/17 02:19:06;;;;;;;8.50;6.28;;;;;;;;;;5013468;28;20100;-72
2023/09/17 02:21:32;;;;;;;9.27;6.32;;;;;;;;;;5014594;28;20050;-72
2023/09/17 02:23:57;;;;;;;8.20;6.47;;;;;;;;;;4998334;28;20514;-71
2023/09/17 02:26:23;;;;;;;7.35;6.22;;;;;;;;;;4999296;28;20164;-71
2023/09/17 02:28:49;;;;;;;8.30;6.55;;;;;;;;;;4997324;28;20581;-72
2023/09/17 02:31:14;;;;;;;10.15;6.90;;;;;;;;;;4998380;28;20049;-72
2023/09/17 02:33:40;;;;;;;11.50;7.10;;;;;;;;;;4999427;28;20049;-71
2023/09/17 02:36:06;;;;;;;10.02;7.18;;;;;;;;;;4996041;28;20053;-72
2023/09/17 02:38:32;;;;;;;11.65;7.95;;;;;;;;;;4997815;28;20058;-72
2023/09/17 02:40:58;;;;;;;10.02;7.07;;;;;;;;;;4980264;28;20100;-72
2023/09/17 02:43:24;;;;;;;11.35;7.35;;;;;;;;;;4999089;28;20574;-71
2023/09/17 02:45:53;;;;;;;10.20;7.47;;;;;;;;;;4996694;28;20068;-72
2023/09/17 02:48:19;;;;;;;10.85;6.88;;;;;;;;;;5012925;28;20424;-72
2023/09/17 02:50:45;;;;;;;8.98;7.20;;;;;;;;;;4997423;28;20099;-71
2023/09/17 02:53:11;;;;;;;9.75;7.25;;;;;;;;;;4996942;28;20051;-72
2023/09/17 02:55:36;;;;;;;8.30;6.93;;;;;;;;;;4998692;28;20034;-72
2023/09/17 02:58:04;;;;;;;13.77;6.93;;;;;;;;;;4997312;28;20115;-72
2023/09/17 03:00:34;;;;;;;8.75;7.35;;;;;;;;;;5013450;28;20048;-72
2023/09/17 03:03:00;;;;;;;11.23;7.22;;;;;;;;;;4995739;28;20103;-72
2023/09/17 03:05:25;;;;;;;9.52;7.38;;;;;;;;;;5013631;28;20038;-72
2023/09/17 03:07:56;;;;;;;9.77;7.28;;;;;;;;;;5012477;28;20046;-72
2023/09/17 03:10:22;;;;;;;10.15;7.30;;;;;;;;;;4998315;28;20049;-72
2023/09/17 03:12:49;;;;;;;9.35;7.00;;;;;;;;;;4996795;28;20978;-71
2023/09/17 03:15:15;;;;;;;9.65;7.03;;;;;;;;;;4996255;28;20879;-71
2023/09/17 03:17:44;;;;;;;10.95;7.95;;;;;;;;;;4996520;28;20073;-72
2023/09/17 03:20:22;;;;;;;10.73;8.02;;;;;;;;;;5012057;28;20042;-72
2023/09/17 03:22:48;;;;;;;11.27;7.75;;;;;;;;;;4979758;28;20046;-72
2023/09/17 03:25:15;;;;;;;10.05;8.35;;;;;;;;;;5012679;28;20616;-72
2023/09/17 03:27:44;;;;;;;12.32;8.90;;;;;;;;;;4996589;28;20046;-72
2023/09/17 03:30:10;;;;;;;10.20;9.15;;;;;;;;;;4995497;28;20048;-72
2023/09/17 03:32:35;;;;;;;12.77;8.75;;;;;;;;;;4996808;28;20048;-72
2023/09/17 03:35:01;;;;;;;11.90;8.35;;;;;;;;;;4995947;28;20050;-72
2023/09/17 03:37:29;;;;;;;8.75;6.97;;;;;;;;;;4979600;28;20046;-71
2023/09/17 03:40:08;;;;;;;11.82;7.70;;;;;;;;;;5012558;28;20060;-72
2023/09/17 03:42:35;;;;;;;8.43;7.50;;;;;;;;;;4993448;28;20052;-72
2023/09/17 03:45:06;;;;;;;10.48;7.55;;;;;;;;;;4995597;28;20049;-72
2023/09/17 03:47:32;;;;;;;7.75;6.60;;;;;;;;;;4996943;28;20034;-73
2023/09/17 03:49:59;;;;;;;11.13;7.93;;;;;;;;;;4995066;28;20056;-72
2023/09/17 03:52:29;;;;;;;10.73;8.18;;;;;;;;;;5012840;28;20050;-72
2023/09/17 03:54:55;;;;;;;11.05;7.50;;;;;;;;;;4995504;28;20046;-72
2023/09/17 03:57:22;;;;;;;8.18;6.88;;;;;;;;;;5011563;28;20042;-72
2023/09/17 03:59:47;;;;;;;8.70;6.85;;;;;;;;;;4995671;28;20103;-72
2023/09/17 04:02:14;;;;;;;7.50;6.38;;;;;;;;;;4994966;28;20034;-72
2023/09/17 04:04:39;;;;;;;10.32;6.95;;;;;;;;;;4996255;28;20046;-72
2023/09/17 04:07:05;;;;;;;8.90;7.35;;;;;;;;;;4979115;28;20100;-72
2023/09/17 04:09:30;;;;;;;12.60;9.30;;;;;;;;;;4996397;28;20060;-72
2023/09/17 04:12:02;;;;;;;15.07;8.13;;;;;;;;;;5001801;28;20172;-76
2023/09/17 04:14:28;;;;;;;10.48;8.27;;;;;;;;;;5002784;28;20041;-72
2023/09/17 04:16:54;;;;;;;9.65;7.70;;;;;;;;;;5001790;28;20208;-72
2023/09/17 04:19:19;;;;;;;13.10;8.75;;;;;;;;;;5018932;28;20042;-72
2023/09/17 04:21:45;;;;;;;12.52;8.93;;;;;;;;;;5004032;28;20103;-71
2023/09/17 04:24:12;;;;;;;11.68;8.13;;;;;;;;;;4968949;28;20053;-72
2023/09/17 04:26:37;;;;;;;12.25;8.40;;;;;;;;;;4980633;28;20074;-72
2023/09/17 04:29:04;;;;;;;13.60;8.48;;;;;;;;;;4966775;28;20197;-72
2023/09/17 04:31:30;;;;;;;14.32;9.55;;;;;;;;;;4995287;28;20095;-72
2023/09/17 04:33:56;;;;;;;12.73;9.30;;;;;;;;;;4985757;28;20054;-72
2023/09/17 04:36:22;;;;;;;11.23;8.98;;;;;;;;;;5018125;28;20050;-72
2023/09/17 04:38:48;;;;;;;13.27;8.60;;;;;;;;;;5018684;28;20054;-72
2023/09/17 04:41:14;;;;;;;11.77;8.60;;;;;;;;;;5002700;28;20049;-71
2023/09/17 04:43:40;;;;;;;10.13;7.35;;;;;;;;;;5002367;28;20490;-72
2023/09/17 04:46:06;;;;;;;9.70;7.35;;;;;;;;;;5017064;28;20042;-72
2023/09/17 04:48:34;;;;;;;9.07;7.68;;;;;;;;;;5018703;28;20045;-72
2023/09/17 04:50:59;;;;;;;9.63;7.93;;;;;;;;;;5003013;28;20054;-72
2023/09/17 04:53:24;;;;;;;10.85;8.15;;;;;;;;;;5001712;28;20758;-72
2023/09/17 04:55:51;;;;;;;10.68;8.10;;;;;;;;;;5002170;28;20049;-72
2023/09/17 04:58:20;;;;;;;11.63;8.45;;;;;;;;;;5001243;28;20133;-71
2023/09/17 05:00:47;;;;;;;15.05;8.20;;;;;;;;;;5002391;28;20224;-72
2023/09/17 05:03:13;;;;;;;11.55;8.65;;;;;;;;;;5000909;28;20124;-72
2023/09/17 05:05:38;;;;;;;11.88;8.95;;;;;;;;;;5001989;28;20034;-72
2023/09/17 05:08:04;;;;;;;12.02;8.45;;;;;;;;;;5000816;28;20046;-72
2023/09/17 05:10:30;;;;;;;12.65;8.82;;;;;;;;;;5002359;28;20136;-72
2023/09/17 05:12:56;;;;;;;14.15;9.30;;;;;;;;;;5001219;28;20136;-72
2023/09/17 05:15:22;;;;;;;10.90;8.60;;;;;;;;;;5017566;28;20511;-72
2023/09/17 05:17:49;;;;;;;13.20;9.35;;;;;;;;;;5017219;28;20104;-72
2023/09/17 05:20:14;;;;;;;13.73;9.15;;;;;;;;;;5000241;28;20054;-72
2023/09/17 05:22:40;;;;;;;13.32;9.40;;;;;;;;;;4997687;28;20046;-72
2023/09/17 05:25:08;;;;;;;15.95;10.18;;;;;;;;;;4997378;28;20499;-72
2023/09/17 05:27:34;;;;;;;14.68;10.25;;;;;;;;;;5014633;28;20057;-72
2023/09/17 05:30:01;;;;;;;14.45;9.27;;;;;;;;;;4997485;28;20077;-72
2023/09/17 05:32:28;;;;;;;11.43;8.80;;;;;;;;;;5014415;28;20569;-72
2023/09/17 05:34:53;;;;;;;20.58;9.93;;;;;;;;;;4982054;28;20041;-72
2023/09/17 05:37:19;;;;;;;16.70;10.18;;;;;;;;;;4981138;28;20213;-72
2023/09/17 05:39:44;;;;;;;12.48;9.57;;;;;;;;;;4998423;28;20421;-72
2023/09/17 05:42:10;;;;;;;14.00;9.02;;;;;;;;;;4995439;28;20065;-72
2023/09/17 05:44:35;;;;;;;14.20;9.65;;;;;;;;;;4999395;28;20650;-73
2023/09/17 05:47:01;;;;;;;13.27;8.50;;;;;;;;;;4997556;28;20074;-71
2023/09/17 05:49:27;;;;;;;8.25;7.05;;;;;;;;;;5014606;28;20038;-72
2023/09/17 05:51:52;;;;;;;8.57;6.80;;;;;;;;;;4981852;28;20127;-71
2023/09/17 05:54:18;;;;;;;9.95;6.50;;;;;;;;;;5014464;28;20038;-73
2023/09/17 05:56:44;;;;;;;8.73;6.55;;;;;;;;;;4981133;28;20046;-71
2023/09/17 05:59:10;;;;;;;10.25;6.22;;;;;;;;;;5013442;28;20061;-73
2023/09/17 06:01:36;;;;;;;13.70;6.30;;;;;;;;;;4997847;28;20034;-70
2023/09/17 06:04:02;;;;;;;6.45;5.60;;;;;;;;;;4996191;28;20438;-71
2023/09/17 06:06:28;;;;;;;6.97;5.70;;;;;;;;;;4997142;28;20050;-71
2023/09/17 06:08:53;;;;;;;7.35;5.50;;;;;;;;;;4996818;28;20475;-70
2023/09/17 06:11:19;;;;;;;6.60;5.30;;;;;;;;;;5013188;28;20289;-71
2023/09/17 06:13:44;;;;;;;5.43;4.82;;;;;;;;;;4997428;28;20128;-72
2023/09/17 06:16:10;;;;;;;7.43;4.55;;;;;;;;;;4993505;28;20065;-72
2023/09/17 06:18:35;;;;;;;5.20;4.70;;;;;;;;;;5014638;28;20038;-71
2023/09/17 06:21:03;;;;;;;3.85;3.55;;;;;;;;;;4997158;28;20151;-72
2023/09/17 06:23:31;;;;;;;4.88;3.65;;;;;;;;;;5013080;28;20053;-72
2023/09/17 06:25:59;;;;;;;4.07;3.50;;;;;;;;;;5013117;28;20038;-72
2023/09/17 06:28:26;;;;;;;4.38;3.92;;;;;;;;;;4995879;28;20283;-72
2023/09/17 06:30:53;;;;;;;3.83;3.47;;;;;;;;;;4996871;28;20046;-72
2023/09/17 06:33:18;;;;;;;4.40;3.17;;;;;;;;;;5011347;28;20049;-72
2023/09/17 06:35:43;;;;;;;3.40;3.08;;;;;;;;;;4997248;28;20107;-72
2023/09/17 06:38:09;;;;;;;6.53;3.42;;;;;;;;;;4997495;28;20570;-72
2023/09/17 06:40:34;;;;;;;3.72;3.08;;;;;;;;;;4998028;28;20403;-72
2023/09/17 06:43:00;;;;;;;4.97;3.20;;;;;;;;;;4998537;28;20498;-71
2023/09/17 06:45:25;;;;;;;4.25;3.85;;;;;;;;;;4996501;28;20038;-72
2023/09/17 06:47:51;;;;;;;3.60;3.30;;;;;;;;;;4998396;28;20454;-72
2023/09/17 06:50:17;;;;;;;4.88;3.33;;;;;;;;;;4995443;28;20084;-73
2023/09/17 06:52:42;;;;;;;4.60;3.40;;;;;;;;;;5014872;28;20107;-72
2023/09/17 06:55:08;;;;;;;6.38;3.40;;;;;;;;;;4987664;28;20554;-72
2023/09/17 06:57:33;;;;;;;3.45;3.00;;;;;;;;;;5007333;28;20050;-72
2023/09/17 06:59:59;;;;;;;5.72;2.53;;;;;;;;;;5020553;28;20041;-72
2023/09/17 07:02:24;;;;;;;6.97;2.30;;;;;;;;;;5015542;28;20477;-72
2023/09/17 07:04:49;;;;;;;2.50;2.30;;;;;;;;;;4997301;28;20080;-72
2023/09/17 07:07:15;;;;;;;3.20;2.30;;;;;;;;;;4996169;28;20641;-73
2023/09/17 07:09:41;;;;;;;2.33;2.08;;;;;;;;;;4998658;28;20046;-73
2023/09/17 07:12:06;;;;;;;4.30;2.65;;;;;;;;;;4995409;28;20045;-73
2023/09/17 07:14:32;;;;;;;3.83;3.35;;;;;;;;;;5013716;28;20136;-73
2023/09/17 07:16:57;;;;;;;4.45;2.90;;;;;;;;;;4995529;28;20100;-73
2023/09/17 07:19:23;;;;;;;4.32;2.75;;;;;;;;;;4997989;28;20080;-72
2023/09/17 07:21:48;;;;;;;2.50;2.30;;;;;;;;;;4997658;28;20970;-73
2023/09/17 07:24:14;;;;;;;3.78;2.30;;;;;;;;;;4994793;28;20050;-73
2023/09/17 07:26:41;;;;;;;2.40;2.17;;;;;;;;;;4996765;28;20041;-73
2023/09/17 07:29:06;;;;;;;2.35;2.15;;;;;;;;;;4979446;28;20503;-73
2023/09/17 07:31:32;;;;;;;2.13;1.95;;;;;;;;;;4995985;28;20053;-73
2023/09/17 07:33:57;;;;;;;3.40;2.40;;;;;;;;;;4998253;28;20052;-73
2023/09/17 07:36:23;;;;;;;2.50;2.30;;;;;;;;;;5012722;28;20054;-73
2023/09/17 07:38:48;;;;;;;2.42;2.22;;;;;;;;;;4997454;28;20054;-73
2023/09/17 07:41:14;;;;;;;2.05;1.95;;;;;;;;;;4993811;28;20494;-73
2023/09/17 07:43:40;;;;;;;3.38;2.30;;;;;;;;;;4980508;28;20491;-73
2023/09/17 07:46:06;;;;;;;2.67;2.47;;;;;;;;;;4977161;28;20041;-74
2023/09/17 07:48:31;;;;;;;2.58;2.30;;;;;;;;;;4991116;28;20559;-73
2023/09/17 07:51:01;;;;;;;4.97;2.40;;;;;;;;;;4995093;28;20049;-73
2023/09/17 07:53:27;;;;;;;4.55;2.20;;;;;;;;;;5010302;28;20052;-74
2023/09/17 07:55:52;;;;;;;2.90;2.60;;;;;;;;;;4978119;28;20039;-73
2023/09/17 07:58:18;;;;;;;5.85;2.78;;;;;;;;;;4992049;28;20054;-74
2023/09/17 08:00:46;;;;;;;2.35;2.15;;;;;;;;;;4978111;28;20038;-73
2023/09/17 08:03:18;;;;;;;4.07;2.10;;;;;;;;;;4992323;28;20495;-73
2023/09/17 08:05:45;;;;;;;2.30;2.10;;;;;;;;;;4996719;28;20081;-74
2023/09/17 08:08:11;;;;;;;3.47;2.30;;;;;;;;;;5009768;28;20229;-73
2023/09/17 08:10:37;;;;;;;3.80;2.25;;;;;;;;;;4996042;28;20049;-74
2023/09/17 08:13:03;;;;;;;2.50;2.30;;;;;;;;;;4993580;28;20112;-74
2023/09/17 08:15:29;;;;;;;3.30;2.17;;;;;;;;;;4994891;28;20494;-74
2023/09/17 08:17:58;;;;;;;3.60;2.20;;;;;;;;;;4995503;28;20058;-73
2023/09/17 08:20:24;;;;;;;2.22;2.05;;;;;;;;;;4994744;28;20550;-72
2023/09/17 08:22:51;;;;;;;2.47;2.28;;;;;;;;;;5010730;28;20041;-74
2023/09/17 08:25:17;;;;;;;2.20;2.10;;;;;;;;;;4995001;28;20053;-73
2023/09/17 08:27:43;;;;;;;2.00;1.88;;;;;;;;;;5010692;28;20054;-74
2023/09/17 08:30:12;;;;;;;2.30;2.10;;;;;;;;;;4993739;28;20099;-73
2023/09/17 08:32:47;;;;;;;4.13;1.90;;;;;;;;;;4994155;28;20088;-73
2023/09/17 08:35:15;;;;;;;3.33;2.05;;;;;;;;;;4976219;28;20264;-73
2023/09/17 08:37:42;;;;;;;2.00;1.80;;;;;;;;;;5010867;28;20053;-73
2023/09/17 08:40:13;;;;;;;2.72;1.90;;;;;;;;;;4976254;28;20108;-73
2023/09/17 08:42:41;;;;;;;;;;;;;;;;;;5011810;28;20050;-74
2023/09/17 08:45:08;;;;;;;2.78;2.17;;;;;;;;;;4993822;28;19928;-74
2023/09/17 08:47:34;;;;;;;2.30;2.10;;;;;;;;;;5011372;28;20057;-74
2023/09/17 08:49:59;;;;;;;4.32;2.38;;;;;;;;;;4993945;28;20058;-74
2023/09/17 08:52:26;;;;;;;2.00;1.90;;;;;;;;;;4994851;28;20256;-74
2023/09/17 08:54:52;;;;;;;2.78;2.00;;;;;;;;;;4995040;28;20050;-74
2023/09/17 08:57:22;;;;;;;2.10;1.90;;;;;;;;;;4997891;28;20056;-74
2023/09/17 08:59:54;;;;;;;2.35;2.15;;;;;;;;;;4998451;28;20049;-73
2023/09/17 09:02:31;;;;;;;3.17;2.10;;;;;;;;;;4997929;28;20210;-74
2023/09/17 09:04:59;;;;;;;3.45;2.10;;;;;;;;;;4998730;28;20141;-73
2023/09/17 09:07:25;;;;;;;2.25;2.05;;;;;;;;;;4995408;28;20104;-74
2023/09/17 09:09:52;;;;;;;2.40;2.20;;;;;;;;;;4997076;28;20038;-73
2023/09/17 09:12:18;;;;;;;4.00;2.10;;;;;;;;;;4997442;28;20072;-74
2023/09/17 09:14:44;;;;;;;2.03;1.88;;;;;;;;;;4981653;28;20069;-74
2023/09/17 09:17:11;;;;;;;2.30;2.10;;;;;;;;;;4996335;28;20133;-74
2023/09/17 09:19:37;;;;;;;2.10;2.00;;;;;;;;;;4998818;28;20549;-75
2023/09/17 09:22:02;;;;;;;13.15;2.10;;;;;;;;;;4998275;28;20050;-74
2023/09/17 09:25:01;;;;;;;2.35;2.13;;;;;;;;;;4998701;28;20581;-74
2023/09/17 09:27:26;;;;;;;3.58;2.00;;;;;;;;;;4927295;28;20041;-74
2023/09/17 09:29:52;;;;;;;2.42;2.22;;;;;;;;;;4997910;28;20417;-73
2023/09/17 09:32:18;;;;;;;1.90;1.80;;;;;;;;;;5012662;28;20526;-70
2023/09/17 09:34:46;;;;;;;2.35;2.15;;;;;;;;;;4998981;28;20046;-72
2023/09/17 09:37:12;;;;;;;2.10;2.00;;;;;;;;;;4997330;28;20054;-70
2023/09/17 09:39:38;;;;;;;2.15;2.05;;;;;;;;;;4998600;28;20057;-69
2023/09/17 09:42:04;;;;;;;2.20;2.00;;;;;;;;;;4998496;28;20058;-70
2023/09/17 09:44:31;;;;;;;2.22;2.00;;;;;;;;;;4997309;28;20053;-72
2023/09/17 09:47:00;;;;;;;2.03;1.92;;;;;;;;;;4998394;28;20164;-69
2023/09/17 09:49:26;;;;;;;4.20;2.30;;;;;;;;;;4997198;28;20053;-70
2023/09/17 09:51:52;;;;;;;2.83;1.95;;;;;;;;;;4999329;28;20049;-70
2023/09/17 09:54:18;;;;;;;2.35;2.15;;;;;;;;;;4998708;28;20080;-70
2023/09/17 09:56:47;;;;;;;3.10;2.22;;;;;;;;;;4999353;28;20494;-70
2023/09/17 09:59:14;;;;;;;2.28;2.17;;;;;;;;;;5012917;28;20642;-73
2023/09/17 10:01:41;;;;;;;5.25;2.10;;;;;;;;;;4997953;28;20052;-71
2023/09/17 10:04:11;;;;;;;2.22;2.05;;;;;;;;;;4981816;28;20054;-72
2023/09/17 10:06:39;;;;;;;2.20;2.00;;;;;;;;;;4999028;28;20034;-72
2023/09/17 10:09:06;;;;;;;2.40;2.20;;;;;;;;;;4981764;28;20069;-72
2023/09/17 10:11:32;;;;;;;2.40;2.20;;;;;;;;;;4998651;28;20050;-72
2023/09/17 10:14:02;;;;;;;2.47;2.25;;;;;;;;;;4998168;28;20578;-71
2023/09/17 10:16:29;;;;;;;3.07;2.20;;;;;;;;;;4980280;28;20080;-72
2023/09/17 10:18:56;;;;;;;2.42;2.00;;;;;;;;;;5000048;28;20287;-72
2023/09/17 10:21:25;;;;;;;4.07;2.33;;;;;;;;;;4981156;28;20044;-72
2023/09/17 10:23:53;;;;;;;2.30;2.10;;;;;;;;;;4998941;28;20070;-72
2023/09/17 10:26:22;;;;;;;2.17;2.00;;;;;;;;;;4996438;28;20104;-72
2023/09/17 10:28:48;;;;;;;2.30;2.10;;;;;;;;;;4999465;28;20653;-72
2023/09/17 10:31:15;;;;;;;2.50;2.30;;;;;;;;;;4998751;28;20418;-72
2023/09/17 10:33:43;;;;;;;2.13;1.92;;;;;;;;;;4994694;28;20042;-72
2023/09/17 10:36:10;;;;;;;2.40;2.15;;;;;;;;;;4996318;28;20077;-72
2023/09/17 10:38:39;;;;;;;3.35;1.80;;;;;;;;;;4997716;28;20038;-71
2023/09/17 10:41:05;;;;;;;2.40;2.20;;;;;;;;;;4999154;28;20052;-73
2023/09/17 10:43:38;;;;;;;3.22;2.60;;;;;;;;;;4997992;28;20791;-72
2023/09/17 10:46:07;;;;;;;2.03;1.90;;;;;;;;;;4998286;28;20046;-72
2023/09/17 10:48:33;;;;;;;3.38;2.10;;;;;;;;;;4964033;28;20791;-72
2023/09/17 10:51:00;;;;;;;3.22;2.35;;;;;;;;;;4998842;28;20059;-71
2023/09/17 10:53:26;;;;;;;2.90;2.40;;;;;;;;;;4997919;28;20083;-73
2023/09/17 10:55:59;;;;;;;2.88;2.58;;;;;;;;;;4980124;28;20546;-71
2023/09/17 10:58:30;;;;;;;2.55;2.33;;;;;;;;;;4997223;28;20045;-74
2023/09/17 11:00:57;;;;;;;2.22;2.00;;;;;;;;;;4981212;28;20050;-74
2023/09/17 11:03:25;;;;;;;2.15;2.03;;;;;;;;;;4996270;28;20050;-74
2023/09/17 11:05:52;;;;;;;2.70;2.35;;;;;;;;;;4997124;28;20052;-74
2023/09/17 11:08:18;;;;;;;2.53;2.33;;;;;;;;;;4978879;28;20068;-74
2023/09/17 11:10:44;;;;;;;3.53;2.40;;;;;;;;;;4998325;28;21074;-73
2023/09/17 11:13:13;;;;;;;6.07;2.20;;;;;;;;;;4997959;28;20077;-72
2023/09/17 11:15:41;;;;;;;2.10;2.00;;;;;;;;;;4998598;28;20042;-73
2023/09/17 11:18:07;;;;;;;2.40;2.17;;;;;;;;;;4997658;28;20064;-73
2023/09/17 11:20:33;;;;;;;5.53;2.00;;;;;;;;;;4979692;28;20056;-73
2023/09/17 11:23:00;;;;;;;1.85;1.75;;;;;;;;;;4998691;28;20491;-74
2023/09/17 11:25:39;;;;;;;2.47;2.28;;;;;;;;;;4997404;28;20069;-73
2023/09/17 11:28:12;;;;;;;3.90;2.53;;;;;;;;;;4997841;28;20625;-74
2023/09/17 11:31:02;;;;;;;2.33;2.13;;;;;;;;;;4998005;28;20056;-74
2023/09/17 11:33:28;;;;;;;4.20;2.92;;;;;;;;;;4980118;28;20073;-74
2023/09/17 11:35:55;;;;;;;3.00;1.95;;;;;;;;;;4998055;28;20061;-77
2023/09/17 11:38:24;;;;;;;2.33;1.90;;;;;;;;;;4979497;28;20678;-74
2023/09/17 11:41:02;;;;;;;2.03;1.83;;;;;;;;;;4997345;28;20161;-74
2023/09/17 11:43:28;;;;;;;2.28;1.92;;;;;;;;;;4980370;28;20042;-74
2023/09/17 11:45:54;;;;;;;2.15;2.05;;;;;;;;;;4991952;28;20046;-74
2023/09/17 11:48:19;;;;;;;2.63;2.30;;;;;;;;;;4978882;28;20049;-74
2023/09/17 11:50:45;;;;;;;2.30;2.10;;;;;;;;;;4992567;28;20053;-74
2023/09/17 11:53:10;;;;;;;2.45;2.08;;;;;;;;;;4995972;28;20049;-74
2023/09/17 11:55:36;;;;;;;2.10;1.80;;;;;;;;;;4995312;28;20097;-74
2023/09/17 11:58:13;;;;;;;2.95;2.45;;;;;;;;;;4976333;28;20048;-75
2023/09/17 12:00:39;;;;;;;2.63;2.20;;;;;;;;;;4994115;28;20050;-73
2023/09/17 12:03:04;;;;;;;2.30;2.10;;;;;;;;;;4993378;28;20046;-74
2023/09/17 12:05:30;;;;;;;2.05;1.92;;;;;;;;;;4977112;28;20057;-74
2023/09/17 12:07:56;;;;;;;2.38;1.90;;;;;;;;;;4992001;28;20112;-75
2023/09/17 12:10:26;;;;;;;2.05;1.90;;;;;;;;;;4994661;28;20054;-75
2023/09/17 12:12:52;;;;;;;2.30;2.10;;;;;;;;;;4994174;28;20058;-74
2023/09/17 12:15:18;;;;;;;2.17;1.98;;;;;;;;;;4994487;28;20038;-75
2023/09/17 12:17:44;;;;;;;2.35;2.13;;;;;;;;;;4994993;28;21070;-75
2023/09/17 12:20:20;;;;;;;2.72;2.00;;;;;;;;;;4994478;28;20038;-74
2023/09/17 12:22:56;;;;;;;2.15;2.03;;;;;;;;;;4994265;28;20068;-74
2023/09/17 12:25:22;;;;;;;2.45;2.25;;;;;;;;;;4994897;28;20048;-74
2023/09/17 12:27:47;;;;;;;3.72;2.30;;;;;;;;;;4995605;28;20045;-74
2023/09/17 12:30:14;;;;;;;2.53;1.90;;;;;;;;;;4995328;28;20061;-74
2023/09/17 12:32:40;;;;;;;2.47;2.10;;;;;;;;;;4998552;28;20072;-74
2023/09/17 12:35:06;;;;;;;2.28;2.08;;;;;;;;;;5012998;28;20152;-74
2023/09/17 12:37:31;;;;;;;2.08;1.88;;;;;;;;;;4998182;28;20054;-73
2023/09/17 12:39:57;;;;;;;2.85;1.83;;;;;;;;;;4995302;28;20111;-73
2023/09/17 12:42:23;;;;;;;3.60;2.20;;;;;;;;;;4997623;28;20057;-73
2023/09/17 12:44:49;;;;;;;3.35;2.00;;;;;;;;;;4999370;28;20050;-74
2023/09/17 12:47:15;;;;;;;1.90;1.80;;;;;;;;;;5012780;28;20053;-73
2023/09/17 12:49:42;;;;;;;1.90;1.80;;;;;;;;;;4998551;28;20084;-74
2023/09/17 12:52:09;;;;;;;2.92;1.80;;;;;;;;;;4997161;28;20038;-73
2023/09/17 12:54:34;;;;;;;1.88;1.70;;;;;;;;;;4996107;28;20049;-73
2023/09/17 12:57:00;;;;;;;2.58;1.73;;;;;;;;;;5013139;28;20053;-74
2023/09/17 12:59:30;;;;;;;1.90;1.80;;;;;;;;;;4979900;28;20045;-70
2023/09/17 13:01:59;;;;;;;2.35;2.15;;;;;;;;;;4998276;28;20061;-71
2023/09/17 13:04:38;;;;;;;2.25;2.05;;;;;;;;;;4997866;28;20050;-73
2023/09/17 13:07:06;;;;;;;4.45;2.45;;;;;;;;;;5013795;28;20228;-73
2023/09/17 13:09:32;;;;;;;2.50;2.30;;;;;;;;;;5012397;28;20188;-73
2023/09/17 13:11:59;;;;;;;2.45;2.25;;;;;;;;;;5012543;28;20038;-73
2023/09/17 13:14:24;;;;;;;2.25;2.05;;;;;;;;;;4997469;28;20141;-72
2023/09/17 13:16:51;;;;;;;2.22;2.03;;;;;;;;;;4996691;28;20145;-73
2023/09/17 13:19:17;;;;;;;3.38;2.25;;;;;;;;;;4996574;28;20487;-73
2023/09/17 13:21:43;;;;;;;2.50;2.30;;;;;;;;;;4996941;28;20073;-74
2023/09/17 13:24:09;;;;;;;3.58;2.13;;;;;;;;;;4995938;28;20098;-73
2023/09/17 13:26:35;;;;;;;2.42;2.00;;;;;;;;;;4998325;28;20179;-73
2023/09/17 13:29:00;;;;;;;2.08;1.95;;;;;;;;;;4980366;28;20461;-73
2023/09/17 13:31:26;;;;;;;2.13;1.92;;;;;;;;;;4996895;28;20058;-72
2023/09/17 13:33:51;;;;;;;4.00;2.22;;;;;;;;;;4997501;28;20042;-74
2023/09/17 13:36:17;;;;;;;2.10;1.90;;;;;;;;;;4996649;28;20045;-73
2023/09/17 13:38:43;;;;;;;2.40;2.20;;;;;;;;;;4979918;28;20049;-72
2023/09/17 13:41:09;;;;;;;2.38;2.20;;;;;;;;;;4994501;28;20498;-74
2023/09/17 13:43:34;;;;;;;2.40;2.20;;;;;;;;;;5012679;28;20077;-73
2023/09/17 13:46:02;;;;;;;2.17;1.98;;;;;;;;;;5012301;28;20056;-73
2023/09/17 13:48:29;;;;;;;3.67;1.83;;;;;;;;;;4997270;28;20092;-73
2023/09/17 13:50:55;;;;;;;2.10;1.90;;;;;;;;;;4997370;28;20060;-72
2023/09/17 13:53:21;;;;;;;2.40;2.20;;;;;;;;;;4995302;28;20051;-74
2023/09/17 13:55:47;;;;;;;2.28;2.08;;;;;;;;;;4981093;28;20050;-73
2023/09/17 13:58:13;;;;;;;2.10;2.00;;;;;;;;;;4979472;28;20045;-73
2023/09/17 14:00:39;;;;;;;2.10;1.90;;;;;;;;;;4995800;28;20030;-70
2023/09/17 14:03:14;;;;;;;2.20;2.00;;;;;;;;;;4994085;28;20074;-71
2023/09/17 14:05:43;;;;;;;2.20;2.00;;;;;;;;;;4995539;28;20129;-72
2023/09/17 14:08:09;;;;;;;2.80;2.20;;;;;;;;;;4994743;28;20100;-71
2023/09/17 14:10:35;;;;;;;4.78;2.30;;;;;;;;;;4996475;28;20078;-71
2023/09/17 14:13:04;;;;;;;2.40;2.20;;;;;;;;;;4996142;28;20034;-71
2023/09/17 14:15:34;;;;;;;2.25;2.05;;;;;;;;;;4995648;28;20100;-73
2023/09/17 14:18:00;;;;;;;2.03;1.92;;;;;;;;;;4993710;28;20111;-72
2023/09/17 14:20:25;;;;;;;2.20;2.00;;;;;;;;;;4996464;28;20279;-72
2023/09/17 14:22:56;;;;;;;2.50;2.30;;;;;;;;;;4996025;28;20042;-72
2023/09/17 14:25:23;;;;;;;2.72;2.50;;;;;;;;;;4978532;28;20103;-75
2023/09/17 14:27:51;;;;;;;2.40;2.00;;;;;;;;;;5011478;28;20037;-72
2023/09/17 14:30:21;;;;;;;2.65;1.98;;;;;;;;;;4995352;28;20053;-71
2023/09/17 14:32:51;;;;;;;2.10;1.90;;;;;;;;;;4993927;28;20133;-73
2023/09/17 14:35:18;;;;;;;1.75;1.65;;;;;;;;;;4988034;28;20104;-73
2023/09/17 14:37:44;;;;;;;2.30;2.10;;;;;;;;;;5010003;28;20136;-74
2023/09/17 14:40:10;;;;;;;2.22;2.03;;;;;;;;;;5008501;28;20057;-73